Steubenville, OH (43953)

5:38 PM EDT on July 24, 2016 (GMT -0400)
Sunset Gardens | | Change Station
Active Advisory: Heat Advisory

Elev 1150 ft 40.38 °N, 80.72 °W | Updated 2 minutes ago

Thunderstorm
Thunderstorm
78.4 °F
Feels Like 81 °F
N
0.0
Wind Variable Wind from NE
Gusts 0.0 mph

Today
High -- | Low -- °F
--% Chance of Precip.
Yesterday
High -- | Low -- °F
Precip. -- in
Pressure 30.02 in
Visibility 10.0 miles
Clouds Mostly Cloudy 4100 ft
Mostly Cloudy 5000 ft
Heat Index 81 °F
Dew Point 74 °F
Humidity 87%
Rainfall 0.00 in
Snow Depth Not available.
6:13 AM 8:44 PM
Waning Gibbous, 73% visible
SPECI KHLG 242117Z 21009G28KT 170V230 10SM TS BKN041 BKN050 27/17 A3002 RMK AO2 PK WND 25029/2106 WSHFT 2057 LTG DSNT E AND SW AND W T02720167
Pressure 30.02 in
Visibility 10.0 miles
Clouds Mostly Cloudy 4100 ft
Mostly Cloudy 5000 ft
Heat Index 81 °F
Dew Point 74 °F
Humidity 87%
Rainfall 0.00 in
Snow Depth Not available.
6:13 AM 8:44 PM
Waning Gibbous, 73% visible
SPECI KHLG 242117Z 21009G28KT 170V230 10SM TS BKN041 BKN050 27/17 A3002 RMK AO2 PK WND 25029/2106 WSHFT 2057 LTG DSNT E AND SW AND W T02720167

10-Day Weather Forecast

Almanac

Astronomy

Jul. 24, 2016 Rise Set
Actual Time
Civil Twilight
Nautical Twilight
Astronomical Twilight
Moon
Length of Visible Light
Length of Day
Tomorrow will be .
, % of the Moon is Illuminated

Today's Extremes

State Highs State Lows

Community

WunderPhotos

Upload Photos

1,927,193 photos uploaded!

WunderBlog® & News

Nearby

Air Quality

  Air Quality AQ Index Pollutant
Not available.

Snow Depth

Station Depth Elevation

Earthquake Activity

City Distance Mag. Time & Date
Minimum magnitude displayed is 2.5.

Coastal Water Temperatures

Place Temperature

Stations

Nearby Weather Stations

Station Location Temp. Windchill Dew Point Humidity Wind Precip. Elev Updated Type
                   

Watches & Warnings

Heat Advisory
Issued: 10:57 AM EDT Jul. 24, 2016 – National Weather Service

... Heat advisory remains in effect until 8 PM EDT this evening...

* heat index values... between 100 to 104 are forecast this
afternoon and evening.

* High temperatures... lower to mid 90s.

* Dewpoints... lower 70s.

* Impacts... heat related illnesses will begin to be seen. If you
are susceptible to heat... limit your outdoor activity.

Precautionary/preparedness actions...

Drink plenty of fluids... stay in air-conditioning... stay out of
the sun... and check up on elderly relatives and neighbors. Look
before you lock... never leave children and pets unattended in a
vehicle.



98